الصفحة الرئيسية
METAR-TAF:

METAR-TAF

مطار :

موريشيوس, موريشيوس

مطار سير سيووساغور رامغولام الدولي

دائرة عرض: 20-26S, خط طول: 057-40E, ارتفاع: 55 متر

مراقبة الطقس الحالي

تاريخ ووقت الإصدار 46 دقيقة قبل الساعة 03:00UTC
ريح 16 عقدة من الشمال
درجة الحرارة 26°درجة مئوية
الرطوبة 94%
ضغط 1004 hPa
الرؤية: 8000 متر
غيوم مفككة على ارتفاع 1300 قدم
غيوم متفرقة على ارتفاع 4500 قدم
زخات في الجوار

METAR: FIMP 190300Z 35016KT 8000 VCSH BKN013 SCT045 26/25 Q1004

زمن: 07:46 (03:46 UTC)

توقعات

تاريخ ووقت الإصدار 46 دقيقة قبل الساعة 03:00UTC
التوقعات صالحة من19 الساعة 03 UTC إلى 19 الساعة 15 UTC
ريح 10 عقدة من الشمال تتزايد حتى 25 عقدة
غيوم متفرقة على ارتفاع 1400 قدم
غيوم مفككة على ارتفاع 5000 قدم
مؤقت
من 19 الساعة 06 UTC إلى 19 الساعة 18 UTC
الرؤية: 7000 متر
غيوم قليلة على ارتفاع 1000 قدم
غيوم قليلة على ارتفاع 1200 قدم, مزن ركامية عمودية.
غيوم مفككة على ارتفاع 1300 قدم
زخات من الأمطار الخفيفة

TAF: FIMP 190300Z 1903/1915 01010G25KT SCT014 BKN050 TEMPO 1906/1918 7000 -SHRA FEW010 FEW012TCU BKN013

أرصاد الطقس والتوقعات من أكثر من 4000 مطار (تقارير الطقس للمطار METAR والتنبؤ بالطقس بالمطارTAF).

المحطات المتاحة هي النقط الصفراء والحمراء على الخريطة.

حرك المؤشر فوق النقطة لمعرفة اسم المحطة.

ثم انقر لمعرفة أرصاد وتوقعات الطقس.

لتغيير الخارطة: اضغط على الأزرار الخضراء مع رمز الصليب الأسود للتكبير. على الزر الأخضر مع شرطة للتصغير، أو على الأسهم الخضراء للخرائط المجاورة.


METAR-TAF: